Montecello, Louisiana
Current Conditions -  °F | °C
As of 1:55 PM on Monday 22 Dec 2014 (Local Time) from KHEZ Reporting Station
Overcast Overcast  
Wind Chill: 66°   Ceiling: 1200
Heat Index: 66°   Visibility: 10mi
Dew Point: 61°   Wind: 8mph
Humidity: 83%   Direction: 200°SSW
Pressure: 29.67"   Gusts: NA
Location:  31.835°N, 91.3655°W
Report Text: KHEZ 221955Z AUTO 20007KT 10SM BKN012 OVC018 19/16 A2967 RMK AO1
Loading
Personal Weather Stations






























Interactive Weather Map New forecast layout! Learn more

10-Day Weather Forecast

Advertisements
Track Severe Weather on mobile